createdAt,value
2023-01-13T00:11:27.786Z,12.20
2023-01-13T00:16:24.536Z,12.10
2023-01-13T00:21:25.130Z,11.50
2023-01-13T00:23:55.550Z,11.30
2023-01-13T00:26:30.666Z,11.50
2023-01-13T00:29:00.246Z,11.50
2023-01-13T00:31:30.380Z,11.60
2023-01-13T00:34:02.969Z,11.60
2023-01-13T00:36:31.626Z,12.20
2023-01-13T00:41:29.253Z,11.60
2023-01-13T00:43:56.362Z,11.30
2023-01-13T00:51:23.390Z,11.10
2023-01-13T00:53:53.190Z,12.00
2023-01-13T00:56:39.206Z,11.60
2023-01-13T01:19:28.668Z,11.70
2023-01-13T01:21:56.826Z,11.20
2023-01-13T01:34:19.457Z,11.30
2023-01-13T01:36:47.659Z,11.60
2023-01-13T01:39:15.953Z,12.20
2023-01-13T01:44:43.923Z,11.50
2023-01-13T01:47:16.319Z,11.10
2023-01-13T01:49:46.013Z,11.50
2023-01-13T01:52:33.420Z,11.50
2023-01-13T01:55:20.505Z,11.10
2023-01-13T01:57:55.245Z,11.00
2023-01-13T02:02:53.647Z,11.80
2023-01-13T02:05:23.496Z,11.60
2023-01-13T02:07:54.775Z,11.50
2023-01-13T02:10:27.706Z,11.60
2023-01-13T02:13:01.063Z,11.60
2023-01-13T02:15:52.834Z,11.50
2023-01-13T02:18:35.736Z,11.70
2023-01-13T02:21:31.380Z,11.60
2023-01-13T02:24:49.840Z,11.80
2023-01-13T02:27:54.269Z,11.60
2023-01-13T02:31:25.146Z,11.70
2023-01-13T02:34:11.718Z,11.20
2023-01-13T02:36:57.126Z,11.70
2023-01-13T02:39:58.276Z,11.60
2023-01-13T02:42:52.816Z,11.70
2023-01-13T02:45:39.722Z,11.70
2023-01-13T02:48:10.320Z,11.70
2023-01-13T02:51:21.021Z,11.80
2023-01-13T02:54:00.921Z,12.50
2023-01-13T02:56:31.365Z,11.50
2023-01-13T02:59:01.144Z,11.80
2023-01-13T03:01:29.998Z,11.60
2023-01-13T03:03:58.144Z,11.70
2023-01-13T03:06:55.091Z,11.70
2023-01-13T03:09:34.487Z,12.40
2023-01-13T03:12:22.972Z,11.90
2023-01-13T03:15:37.165Z,11.90
2023-01-13T03:21:11.085Z,11.70
2023-01-13T03:23:52.503Z,12.50
2023-01-13T03:27:15.765Z,12.10
2023-01-13T03:29:58.606Z,12.10
2023-01-13T03:32:38.180Z,11.90
2023-01-13T03:35:28.296Z,12.40
2023-01-13T03:38:16.362Z,11.40
2023-01-13T03:40:55.190Z,11.30
2023-01-13T03:43:49.016Z,11.40
2023-01-13T03:46:47.236Z,11.80
2023-01-13T03:49:21.853Z,12.20
2023-01-13T03:51:58.532Z,11.90
2023-01-13T03:54:32.258Z,11.80
2023-01-13T03:57:11.560Z,11.60
2023-01-13T03:59:44.542Z,11.80
2023-01-13T04:02:49.427Z,11.60
2023-01-13T04:05:19.268Z,11.70
2023-01-13T04:08:07.974Z,12.00
2023-01-13T04:10:54.838Z,11.70
2023-01-13T04:13:27.647Z,11.80
2023-01-13T04:18:30.432Z,11.80
2023-01-13T04:21:01.584Z,11.70
2023-01-13T04:23:30.476Z,11.90
2023-01-13T04:26:00.419Z,11.60
2023-01-13T04:33:26.046Z,11.90
2023-01-13T04:38:23.883Z,11.60
2023-01-13T04:40:52.146Z,12.20
2023-01-13T04:43:20.237Z,11.70
2023-01-13T04:45:48.307Z,11.30
2023-01-13T04:48:16.425Z,11.70
2023-01-13T04:50:44.518Z,11.60
2023-01-13T04:53:12.643Z,11.60
2023-01-13T04:55:44.459Z,11.10
2023-01-13T05:08:09.002Z,11.60
2023-01-13T05:10:37.229Z,12.00
2023-01-13T05:18:39.568Z,11.40
2023-01-13T05:21:27.817Z,11.10
2023-01-13T05:24:17.231Z,11.90
2023-01-13T05:29:14.042Z,11.70
2023-01-13T05:39:08.837Z,11.60
2023-01-13T05:44:22.506Z,11.20
2023-01-13T05:51:49.776Z,11.30
2023-01-13T05:54:17.874Z,11.60
2023-01-13T05:59:14.480Z,11.60
2023-01-13T06:01:42.769Z,11.60
2023-01-13T06:04:10.924Z,11.80
2023-01-13T06:14:04.521Z,12.00
2023-01-13T06:16:32.700Z,11.60
2023-01-13T06:19:00.783Z,11.20
2023-01-13T06:21:28.797Z,11.10
2023-01-13T06:26:29.289Z,11.50
2023-01-13T06:31:28.737Z,11.00
2023-01-13T06:34:04.022Z,11.60
2023-01-13T06:36:40.639Z,11.50
2023-01-13T06:39:10.849Z,11.90
2023-01-13T06:44:25.586Z,11.50
2023-01-13T06:46:54.186Z,11.40
2023-01-13T06:49:22.361Z,10.90
2023-01-13T06:54:18.978Z,11.00
2023-01-13T06:56:47.111Z,10.70
2023-01-13T06:59:15.224Z,10.70
2023-01-13T07:01:43.577Z,10.10
2023-01-13T07:06:40.353Z,10.40
2023-01-13T07:09:08.481Z,10.20
2023-01-13T07:11:36.555Z,9.30
2023-01-13T07:14:24.240Z,10.00
2023-01-13T07:16:54.196Z,9.40
2023-01-13T07:21:53.423Z,9.30
2023-01-13T07:24:22.487Z,8.80
2023-01-13T07:26:52.477Z,9.20
2023-01-13T07:31:50.492Z,9.00
2023-01-13T07:39:15.792Z,9.80
2023-01-13T07:42:01.833Z,9.50
2023-01-13T07:44:30.017Z,8.80
2023-01-13T07:57:08.139Z,9.10
2023-01-13T08:02:05.228Z,9.40
2023-01-13T08:04:33.533Z,9.60
2023-01-13T08:09:30.284Z,8.70
2023-01-13T08:14:40.910Z,8.60
2023-01-13T08:17:10.706Z,8.90
2023-01-13T08:19:38.848Z,9.00
2023-01-13T08:24:35.466Z,9.10
2023-01-13T08:29:32.128Z,8.90
2023-01-13T08:32:00.280Z,8.50
2023-01-13T08:39:25.908Z,8.90
2023-01-13T08:41:56.775Z,9.10
2023-01-13T08:44:30.678Z,9.30
2023-01-13T08:46:59.732Z,9.30
2023-01-13T08:49:28.185Z,8.90
2023-01-13T08:51:56.361Z,9.20
2023-01-13T08:54:24.483Z,8.70
2023-01-13T08:56:53.194Z,9.10
2023-01-13T08:59:21.817Z,8.50
2023-01-13T09:04:22.952Z,8.90
2023-01-13T09:06:51.917Z,8.80
2023-01-13T09:12:09.334Z,8.60
2023-01-13T09:14:39.485Z,8.90
2023-01-13T09:17:08.600Z,8.80
2023-01-13T09:19:37.209Z,9.10
2023-01-13T09:22:05.776Z,9.20
2023-01-13T09:24:34.014Z,9.00
2023-01-13T09:29:30.842Z,8.90
2023-01-13T09:39:42.082Z,8.80
2023-01-13T09:43:03.880Z,9.00
2023-01-13T09:45:43.604Z,9.10
2023-01-13T09:48:28.190Z,9.40
2023-01-13T09:51:16.846Z,9.20
2023-01-13T09:54:03.308Z,8.80
2023-01-13T09:56:31.712Z,9.60
2023-01-13T10:01:54.792Z,9.60
2023-01-13T10:04:23.081Z,9.00
2023-01-13T10:06:57.395Z,9.10
2023-01-13T10:09:52.835Z,8.70
2023-01-13T10:12:43.728Z,8.90
2023-01-13T10:15:23.108Z,9.50
2023-01-13T10:18:20.823Z,9.00
2023-01-13T10:21:27.091Z,9.20
2023-01-13T10:24:08.679Z,9.00
2023-01-13T10:27:05.075Z,9.40
2023-01-13T10:29:34.683Z,9.70
2023-01-13T10:32:02.822Z,9.10
2023-01-13T10:34:31.471Z,9.30
2023-01-13T10:37:06.380Z,9.10
2023-01-13T10:39:48.217Z,9.40
2023-01-13T10:42:22.980Z,9.40
2023-01-13T10:45:01.026Z,9.40
2023-01-13T10:47:37.019Z,9.40
2023-01-13T10:50:13.985Z,9.30
2023-01-13T10:53:16.558Z,9.00
2023-01-13T10:56:00.116Z,9.00
2023-01-13T10:58:28.632Z,9.60
2023-01-13T11:01:07.205Z,9.30
2023-01-13T11:03:41.763Z,9.50
2023-01-13T11:06:21.387Z,9.80
2023-01-13T11:08:52.483Z,9.60
2023-01-13T11:11:44.900Z,9.30
2023-01-13T11:14:41.718Z,9.20
2023-01-13T11:17:29.574Z,10.00
2023-01-13T11:20:13.007Z,10.00
2023-01-13T11:22:55.704Z,10.10
2023-01-13T11:25:43.052Z,9.30
2023-01-13T11:28:32.922Z,9.40
2023-01-13T11:34:03.489Z,9.80
2023-01-13T11:36:47.726Z,9.70
2023-01-13T11:39:57.888Z,10.10
2023-01-13T11:43:11.738Z,9.40
2023-01-13T11:45:49.032Z,9.90
2023-01-13T11:48:22.349Z,10.30
2023-01-13T11:51:02.234Z,10.20
2023-01-13T11:54:29.407Z,10.20
2023-01-13T11:57:19.410Z,9.70
2023-01-13T12:00:05.683Z,10.40
2023-01-13T12:02:45.716Z,10.00
2023-01-13T12:05:31.426Z,10.60
2023-01-13T12:08:27.354Z,10.80
2023-01-13T12:11:19.023Z,10.90
2023-01-13T12:13:47.020Z,10.50
2023-01-13T12:16:32.552Z,10.70
2023-01-13T12:19:21.801Z,10.80
2023-01-13T12:22:13.985Z,10.50
2023-01-13T12:27:47.148Z,10.80
2023-01-13T12:30:29.823Z,11.30
2023-01-13T12:33:18.650Z,10.90
2023-01-13T12:36:00.738Z,11.10
2023-01-13T12:42:00.384Z,10.70
2023-01-13T12:44:27.492Z,11.50
2023-01-13T12:46:58.840Z,10.90
2023-01-13T12:49:36.560Z,10.90
2023-01-13T12:52:12.689Z,11.60
2023-01-13T12:54:43.955Z,11.00
2023-01-13T12:57:28.524Z,11.00
2023-01-13T13:00:10.130Z,10.80
2023-01-13T13:02:42.150Z,10.40
2023-01-13T13:05:16.451Z,10.60
2023-01-13T13:07:52.612Z,10.60
2023-01-13T13:10:31.881Z,10.60
2023-01-13T13:13:20.369Z,10.70
2023-01-13T13:15:51.598Z,10.80
2023-01-13T13:20:56.165Z,11.00
2023-01-13T13:24:03.090Z,10.70
2023-01-13T13:26:42.425Z,11.30
2023-01-13T13:30:02.117Z,11.40
2023-01-13T13:32:47.667Z,11.40
2023-01-13T13:35:51.858Z,11.20
2023-01-13T13:38:45.968Z,11.20
2023-01-13T13:41:42.684Z,11.00
2023-01-13T13:44:37.924Z,10.60
2023-01-13T13:47:07.455Z,10.40
2023-01-13T13:49:37.986Z,10.90
2023-01-13T13:52:12.871Z,11.30
2023-01-13T13:54:47.637Z,10.70
2023-01-13T13:57:20.681Z,10.80
2023-01-13T13:59:56.149Z,10.80
2023-01-13T14:02:38.279Z,10.70
2023-01-13T14:05:34.532Z,10.70
2023-01-13T14:08:18.982Z,10.90
2023-01-13T14:10:48.369Z,10.70
2023-01-13T14:13:31.756Z,10.70
2023-01-13T14:16:11.110Z,10.80
2023-01-13T14:18:47.738Z,10.60
2023-01-13T14:21:29.214Z,10.50
2023-01-13T14:24:10.598Z,10.50
2023-01-13T14:26:39.411Z,10.70
2023-01-13T14:29:10.240Z,10.80
2023-01-13T14:31:40.817Z,10.50
2023-01-13T14:39:38.888Z,10.80
2023-01-13T14:42:14.436Z,10.00
2023-01-13T14:44:50.559Z,10.20
2023-01-13T14:47:22.955Z,10.20
2023-01-13T14:50:12.997Z,10.10
2023-01-13T14:52:54.651Z,10.10
2023-01-13T14:55:38.532Z,10.10
2023-01-13T14:58:29.519Z,10.00
2023-01-13T15:01:36.456Z,10.00
2023-01-13T15:04:38.211Z,10.00
2023-01-13T15:09:45.771Z,9.90
2023-01-13T15:12:44.293Z,9.80
2023-01-13T15:15:36.881Z,9.90
2023-01-13T15:18:17.024Z,9.80
2023-01-13T15:23:14.161Z,10.30
2023-01-13T15:25:49.828Z,10.30
2023-01-13T15:28:26.032Z,9.70
2023-01-13T15:31:00.526Z,9.70
2023-01-13T15:46:53.491Z,9.60
2023-01-13T15:49:44.173Z,9.50
2023-01-13T15:52:26.489Z,10.00
2023-01-13T15:54:55.730Z,9.50
2023-01-13T15:57:33.215Z,10.80
2023-01-13T16:00:13.433Z,9.60
2023-01-13T16:10:17.178Z,9.80
2023-01-13T16:15:22.236Z,9.60
2023-01-13T16:17:57.615Z,9.70
2023-01-13T16:20:26.399Z,9.70
2023-01-13T16:22:54.770Z,9.70
2023-01-13T16:25:26.899Z,9.70
2023-01-13T16:30:37.864Z,10.10
2023-01-13T16:33:05.934Z,9.60
2023-01-13T16:35:35.327Z,9.60
2023-01-13T16:40:37.215Z,9.40
2023-01-13T16:45:35.395Z,9.70
2023-01-13T16:50:41.642Z,9.80
2023-01-13T16:53:11.049Z,9.10
2023-01-13T16:55:41.203Z,10.30
2023-01-13T16:58:19.279Z,9.80
2023-01-13T17:00:48.741Z,9.80
2023-01-13T17:05:47.999Z,10.00
2023-01-13T17:08:19.201Z,9.40
2023-01-13T17:10:48.194Z,9.80
2023-01-13T17:13:17.987Z,9.90
2023-01-13T17:15:47.128Z,9.90
2023-01-13T17:20:43.761Z,9.60
2023-01-13T17:28:08.819Z,10.30
2023-01-13T17:35:34.080Z,10.40
2023-01-13T17:45:28.176Z,9.90
2023-01-13T17:47:59.654Z,9.90
2023-01-13T17:50:28.224Z,9.80
2023-01-13T17:57:53.938Z,9.60
2023-01-13T18:10:16.099Z,10.10
2023-01-13T18:12:44.175Z,9.50
2023-01-13T18:23:14.085Z,9.70
2023-01-13T18:25:59.350Z,9.70
2023-01-13T18:45:52.119Z,9.50
2023-01-13T18:55:45.832Z,9.70
2023-01-13T19:05:41.077Z,9.40
2023-01-13T19:15:38.422Z,9.20
2023-01-13T19:18:06.704Z,9.00
2023-01-13T19:28:00.261Z,9.30
2023-01-13T19:40:22.902Z,9.60
2023-01-13T19:48:05.882Z,9.20
2023-01-13T19:50:38.733Z,9.30
2023-01-13T19:53:08.415Z,9.20
2023-01-13T20:00:34.973Z,9.60
2023-01-13T20:10:33.982Z,10.00
2023-01-13T20:13:02.312Z,9.90
2023-01-13T20:15:31.172Z,9.20
2023-01-13T20:20:28.807Z,9.80
2023-01-13T20:25:28.825Z,9.80
2023-01-13T20:27:58.627Z,9.40
2023-01-13T20:30:26.917Z,9.40
2023-01-13T20:42:54.718Z,10.10
2023-01-13T20:52:49.390Z,9.80
2023-01-13T20:55:17.519Z,8.90
2023-01-13T20:57:48.676Z,8.90
2023-01-13T21:00:17.587Z,9.30
2023-01-13T21:15:27.530Z,9.30
2023-01-13T21:18:13.318Z,9.10
2023-01-13T21:23:11.344Z,8.60
2023-01-13T21:28:11.625Z,9.30
2023-01-13T21:30:40.832Z,9.10
2023-01-13T21:33:09.276Z,9.20
2023-01-13T21:35:40.231Z,8.50
2023-01-13T21:46:09.098Z,8.60
2023-01-13T22:01:04.137Z,8.80
2023-01-13T22:03:54.778Z,8.60
2023-01-13T22:08:53.985Z,9.00
2023-01-13T22:11:22.501Z,8.60
2023-01-13T22:16:49.424Z,8.80
2023-01-13T22:19:18.335Z,8.80
2023-01-13T22:24:15.326Z,8.90
2023-01-13T22:36:39.673Z,8.40
2023-01-13T22:46:33.342Z,8.70
2023-01-13T22:49:01.435Z,8.40
2023-01-13T22:51:30.546Z,8.30
2023-01-13T22:56:28.433Z,8.50
2023-01-13T22:58:59.773Z,8.50
2023-01-13T23:01:32.018Z,8.50
2023-01-13T23:04:00.621Z,8.10
2023-01-13T23:06:31.787Z,8.80
2023-01-13T23:11:31.432Z,8.90
2023-01-13T23:14:06.584Z,8.50
2023-01-13T23:16:39.148Z,9.00
2023-01-13T23:19:09.216Z,8.50
2023-01-13T23:21:39.444Z,8.50
2023-01-13T23:24:08.992Z,8.50
2023-01-13T23:29:12.148Z,8.40
2023-01-13T23:34:09.228Z,8.40
2023-01-13T23:36:41.078Z,8.00
2023-01-13T23:39:09.557Z,8.50
2023-01-13T23:46:35.953Z,8.40
2023-01-13T23:49:05.004Z,8.40
2023-01-13T23:51:33.498Z,8.10
2023-01-13T23:54:02.263Z,8.10
2023-01-13T23:56:33.030Z,8.30
